This is the latest recevied weather packets stored in our database for station/object CE4ERM-13. If no packets are shown the sender has not sent any weather packets the latest 10 day(s).
| Time | Temp. | Humidity | Pressure | Rain* | Wind** | Luminosity | Snow |
|---|---|---|---|---|---|---|---|
| 1778002120 | 29.44° C | 25% | 1014 hPa | - | - | - | - |
| 1778001377 | 23.89° C | 30% | 1014.6 hPa | - | - | - | - |
| 1778000319 | 30° C | 22% | 1013.3 hPa | - | - | - | - |
| 1777999576 | 23.33° C | 31% | 1014.5 hPa | - | - | - | - |
| 1777999117 | 32.22° C | 20% | 1012.3 hPa | - | - | - | - |
| 1777998516 | 32.78° C | 19% | 1012.4 hPa | - | - | - | - |
| 1777997315 | 30.56° C | 21% | 1014.3 hPa | - | - | - | - |
| 1777996715 | 30.56° C | 21% | 1014 hPa | - | - | - | - |
| 1777996573 | 21.67° C | 34% | 1015.2 hPa | - | - | - | - |
| 1777995973 | 21.67° C | 34% | 1015 hPa | - | - | - | - |
| 1777994313 | 28.33° C | 25% | 1014.8 hPa | - | - | - | - |
| 1777994172 | 21.11° C | 36% | 1016.8 hPa | - | - | - | - |
| 1777993572 | 20.56° C | 36% | 1014.5 hPa | - | - | - | - |
| 1777992972 | 20.56° C | 35% | 1019 hPa | - | - | - | - |
| 1777992372 | 20° C | 35% | 1014.6 hPa | - | - | - | - |
| 1777991911 | 26.67° C | 25% | 1015.1 hPa | - | - | - | - |
| 1777991772 | 20° C | 36% | 1015.5 hPa | - | - | - | - |
| 1777990572 | 19.44° C | 37% | 1016.8 hPa | - | - | - | - |
| 1777989978 | 19.44° C | 36% | 1032.1 hPa | - | - | - | - |
| 1777989508 | 25° C | 27% | 1015.1 hPa | - | - | - | - |
| 1777989371 | 18.89° C | 38% | 1016.5 hPa | - | - | - | - |
| 1777988771 | 18.89° C | 39% | 1015.1 hPa | - | - | - | - |
| 1777988307 | 23.89° C | 31% | 1015.6 hPa | - | - | - | - |
| 1777987706 | 23.33° C | 31% | 1015 hPa | - | - | - | - |
| 1777986505 | 22.22° C | 35% | 1017 hPa | - | - | - | - |
* Rain since midnight (hover to see other rain measurements)
** Current wind speed in m/s (hover to see current wind gust speed)